createdAt,value
2019-05-06T09:07:14.572Z,9.49
2019-05-06T09:08:14.552Z,9.57
2019-05-06T09:09:14.547Z,9.49
2019-05-06T09:10:14.529Z,9.53
2019-05-06T09:11:14.523Z,9.50
2019-05-06T09:12:14.507Z,9.57
2019-05-06T09:13:14.496Z,9.58
2019-05-06T09:14:14.509Z,9.67
2019-05-06T09:15:14.477Z,9.71
2019-05-06T09:16:14.464Z,9.70
2019-05-06T09:17:14.451Z,9.61
2019-05-06T09:18:14.439Z,9.78
2019-05-06T09:19:14.448Z,9.63
2019-05-06T09:20:14.416Z,9.64
2019-05-06T09:21:14.407Z,9.68
2019-05-06T09:22:14.395Z,9.73
2019-05-06T09:23:14.383Z,9.71
2019-05-06T09:24:14.384Z,9.75
2019-05-06T09:25:14.362Z,9.82
2019-05-06T09:26:14.354Z,9.81
2019-05-06T09:27:14.342Z,9.83
2019-05-06T09:28:14.328Z,9.96
2019-05-06T09:29:14.328Z,10.12
2019-05-06T09:30:14.305Z,10.09
2019-05-06T09:31:14.297Z,10.06
2019-05-06T09:32:14.294Z,10.12
2019-05-06T09:33:14.276Z,10.10
2019-05-06T09:34:14.287Z,10.14
2019-05-06T09:35:14.251Z,10.09
2019-05-06T09:36:14.240Z,10.18
2019-05-06T09:37:14.397Z,10.09
2019-05-06T09:38:14.216Z,10.04
2019-05-06T09:39:14.205Z,10.07
2019-05-06T09:40:14.201Z,10.00
2019-05-06T09:41:14.183Z,9.96
2019-05-06T09:42:14.175Z,9.94
2019-05-06T09:43:14.160Z,9.89
2019-05-06T09:44:14.175Z,9.91
2019-05-06T09:45:14.147Z,9.81
2019-05-06T09:46:14.128Z,9.82
2019-05-06T09:47:14.123Z,9.79
2019-05-06T09:48:14.106Z,9.86
2019-05-06T09:49:14.104Z,10.03
2019-05-06T09:50:14.092Z,10.17
2019-05-06T09:51:14.077Z,10.22
2019-05-06T09:52:14.062Z,10.22
2019-05-06T09:53:14.048Z,10.18
2019-05-06T09:54:14.037Z,10.21
2019-05-06T09:55:14.036Z,10.19
2019-05-06T09:56:14.041Z,10.34
2019-05-06T09:57:14.004Z,10.37
2019-05-06T09:58:14.001Z,10.40
2019-05-06T09:59:13.983Z,10.44
2019-05-06T10:00:13.995Z,10.52
2019-05-06T10:01:13.966Z,10.55
2019-05-06T10:02:13.971Z,10.68
2019-05-06T10:03:13.970Z,10.71
2019-05-06T10:04:13.929Z,10.70
2019-05-06T10:05:13.921Z,10.76
2019-05-06T10:06:13.902Z,10.78
2019-05-06T10:07:13.894Z,10.60
2019-05-06T10:08:13.882Z,10.65
2019-05-06T10:09:15.987Z,10.52
2019-05-06T10:10:13.867Z,10.51
2019-05-06T10:11:13.846Z,10.63
2019-05-06T10:12:13.837Z,10.60
2019-05-06T10:13:13.832Z,10.63
2019-05-06T10:14:13.821Z,10.66
2019-05-06T10:15:13.829Z,10.70
2019-05-06T10:16:13.790Z,10.68
2019-05-06T10:17:13.793Z,10.86
2019-05-06T10:18:13.770Z,11.02
2019-05-06T10:19:13.757Z,11.06
2019-05-06T10:20:13.756Z,11.20
2019-05-06T10:21:13.737Z,11.28
2019-05-06T10:22:13.724Z,11.53
2019-05-06T10:23:13.712Z,11.62
2019-05-06T10:24:13.711Z,11.62
2019-05-06T10:25:13.699Z,11.75
2019-05-06T10:26:13.679Z,11.72
2019-05-06T10:27:13.670Z,11.75
2019-05-06T10:28:13.669Z,11.64
2019-05-06T10:29:13.649Z,11.54
2019-05-06T10:30:13.829Z,11.52
2019-05-06T10:31:13.623Z,11.24
2019-05-06T10:32:13.612Z,11.32
2019-05-06T10:33:13.601Z,11.21
2019-05-06T10:34:14.380Z,11.32
2019-05-06T10:35:13.579Z,11.28
2019-05-06T10:36:13.577Z,11.21
2019-05-06T10:37:18.994Z,11.38
2019-05-06T10:38:14.544Z,11.38
2019-05-06T10:39:13.554Z,11.32
2019-05-06T10:40:13.558Z,11.36
2019-05-06T10:41:13.520Z,11.21
2019-05-06T10:42:13.655Z,11.27
2019-05-06T10:43:13.492Z,11.20
2019-05-06T10:44:13.479Z,11.19
2019-05-06T10:45:13.467Z,11.19
2019-05-06T10:46:13.468Z,11.01
2019-05-06T10:47:13.445Z,11.06
2019-05-06T10:48:13.434Z,10.92
2019-05-06T10:49:13.427Z,10.84
2019-05-06T10:50:13.411Z,10.68
2019-05-06T10:51:16.868Z,10.58
2019-05-06T10:52:13.393Z,10.58
2019-05-06T10:53:13.645Z,10.55
2019-05-06T10:54:13.389Z,10.55
2019-05-06T10:55:13.367Z,10.51
2019-05-06T10:56:13.354Z,10.47
2019-05-06T10:57:13.333Z,10.56
2019-05-06T10:58:13.322Z,10.46
2019-05-06T10:59:13.313Z,10.43
2019-05-06T11:00:13.301Z,10.53
2019-05-06T11:01:13.308Z,10.53
2019-05-06T11:02:13.278Z,10.40
2019-05-06T11:03:14.862Z,10.65
2019-05-06T11:04:13.256Z,10.56
2019-05-06T11:05:13.247Z,10.51
2019-05-06T11:06:13.326Z,10.59
2019-05-06T11:07:28.237Z,10.68
2019-05-06T11:08:14.211Z,10.68
2019-05-06T11:09:13.608Z,10.66
2019-05-06T11:10:24.011Z,10.59
2019-05-06T11:11:20.068Z,10.66
2019-05-06T11:12:14.165Z,10.80
2019-05-06T11:13:13.238Z,10.81
2019-05-06T11:14:13.151Z,10.70
2019-05-06T11:15:13.132Z,10.77
2019-05-06T11:16:13.130Z,10.77
2019-05-06T11:17:13.112Z,10.78
2019-05-06T11:18:13.705Z,10.73
2019-05-06T11:19:13.407Z,10.74
2019-05-06T11:20:14.038Z,10.80
2019-05-06T11:21:13.099Z,10.71
2019-05-06T11:22:13.071Z,10.59
2019-05-06T11:23:14.201Z,10.63
2019-05-06T11:24:13.037Z,10.68
2019-05-06T11:25:13.019Z,10.58
2019-05-06T11:26:13.221Z,10.70
2019-05-06T11:27:27.527Z,10.55
2019-05-06T11:28:13.989Z,10.55
2019-05-06T11:29:12.975Z,10.55
2019-05-06T11:30:12.965Z,10.42
2019-05-06T11:31:14.130Z,10.19
2019-05-06T11:32:12.942Z,10.22
2019-05-06T11:33:13.123Z,10.24
2019-05-06T11:34:12.920Z,10.07
2019-05-06T11:35:12.912Z,10.04
2019-05-06T11:36:15.256Z,10.21
2019-05-06T11:37:14.923Z,10.14
2019-05-06T11:38:12.875Z,10.07
2019-05-06T11:39:14.214Z,10.21
2019-05-06T11:40:16.499Z,10.24
2019-05-06T11:41:13.290Z,10.25
2019-05-06T11:42:24.958Z,10.19
2019-05-06T11:43:13.817Z,10.24
2019-05-06T11:44:12.917Z,10.34
2019-05-06T11:45:12.796Z,10.30
2019-05-06T11:46:12.784Z,10.43
2019-05-06T11:47:12.781Z,10.37
2019-05-06T11:48:14.663Z,10.34
2019-05-06T11:49:12.753Z,10.47
2019-05-06T11:50:13.076Z,10.47
2019-05-06T11:51:12.934Z,10.52
2019-05-06T11:52:13.061Z,10.53
2019-05-06T11:53:12.707Z,10.70
2019-05-06T11:54:19.381Z,10.80
2019-05-06T11:55:27.520Z,10.76
2019-05-06T11:56:13.673Z,10.78
2019-05-06T11:57:12.679Z,10.88
2019-05-06T11:58:12.748Z,10.92
2019-05-06T11:59:13.005Z,10.91
2019-05-06T12:00:12.681Z,10.98
2019-05-06T12:01:13.479Z,10.99
2019-05-06T12:02:12.783Z,11.10
2019-05-06T12:03:12.808Z,11.14
2019-05-06T12:04:13.872Z,11.16
2019-05-06T12:05:12.580Z,11.16
2019-05-06T12:06:13.209Z,11.31
2019-05-06T12:07:15.706Z,11.24
2019-05-06T12:08:15.590Z,11.27
2019-05-06T12:09:16.594Z,11.24
2019-05-06T12:10:12.975Z,11.28
2019-05-06T12:11:12.837Z,11.25
2019-05-06T12:12:12.877Z,11.25
2019-05-06T12:13:12.486Z,11.29
2019-05-06T12:14:12.586Z,11.29
2019-05-06T12:15:12.702Z,11.34
2019-05-06T12:16:14.212Z,11.39
2019-05-06T12:17:12.852Z,11.43
2019-05-06T12:18:12.544Z,11.46
2019-05-06T12:19:13.068Z,11.41
2019-05-06T12:20:13.174Z,11.44
2019-05-06T12:21:18.891Z,11.34
2019-05-06T12:22:13.392Z,11.31
2019-05-06T12:23:15.574Z,11.34
2019-05-06T12:24:12.381Z,11.25
2019-05-06T12:25:15.208Z,11.13
2019-05-06T12:26:13.174Z,11.07
2019-05-06T12:27:12.724Z,11.16
2019-05-06T12:28:12.453Z,11.11
2019-05-06T12:29:12.774Z,11.10
2019-05-06T12:30:12.406Z,11.20
2019-05-06T12:31:12.774Z,11.21
2019-05-06T12:32:12.908Z,11.28
2019-05-06T12:33:13.004Z,11.06
2019-05-06T12:34:14.500Z,11.14
2019-05-06T12:35:12.543Z,11.03
2019-05-06T12:36:12.835Z,11.02
2019-05-06T12:37:12.216Z,10.98
2019-05-06T12:38:26.517Z,10.95
2019-05-06T12:39:16.134Z,11.01
2019-05-06T12:40:12.561Z,10.94
2019-05-06T12:41:13.885Z,10.92
2019-05-06T12:42:12.160Z,10.80
2019-05-06T12:43:12.931Z,10.81
2019-05-06T12:44:13.056Z,10.84
2019-05-06T12:45:13.068Z,10.99
2019-05-06T12:46:13.245Z,10.86
2019-05-06T12:47:13.416Z,10.94
2019-05-06T12:48:13.054Z,10.83
2019-05-06T12:49:12.773Z,10.81
2019-05-06T12:50:12.075Z,10.83
2019-05-06T12:51:12.062Z,10.80
2019-05-06T12:52:12.407Z,10.83
2019-05-06T12:53:13.329Z,10.88
2019-05-06T12:54:12.932Z,10.91
2019-05-06T12:55:21.517Z,10.88
2019-05-06T12:56:13.009Z,10.91
2019-05-06T12:57:12.587Z,10.92
2019-05-06T12:58:13.557Z,11.01
2019-05-06T12:59:12.786Z,11.11
2019-05-06T13:00:13.058Z,11.24
2019-05-06T13:01:13.647Z,11.27
2019-05-06T13:02:13.249Z,11.24
2019-05-06T13:03:12.676Z,11.25
2019-05-06T13:04:13.527Z,11.35
2019-05-06T13:05:12.632Z,11.54
2019-05-06T13:06:12.975Z,11.56
2019-05-06T13:07:11.881Z,11.74
2019-05-06T13:08:18.734Z,11.70
2019-05-06T13:09:13.031Z,11.65
2019-05-06T13:10:13.139Z,11.75
2019-05-06T13:11:13.138Z,11.70
2019-05-06T13:12:12.341Z,11.80
2019-05-06T13:13:12.747Z,11.83
2019-05-06T13:14:12.780Z,11.78
2019-05-06T13:15:13.313Z,11.71
2019-05-06T13:16:12.585Z,11.82
2019-05-06T13:17:11.770Z,11.64
2019-05-06T13:18:11.772Z,11.78
2019-05-06T13:19:12.275Z,11.65
2019-05-06T13:20:14.690Z,11.71
2019-05-06T13:21:12.713Z,11.67
2019-05-06T13:22:13.483Z,11.65
2019-05-06T13:23:17.296Z,11.56
2019-05-06T13:24:12.690Z,11.68
2019-05-06T13:25:13.603Z,11.59
2019-05-06T13:26:12.824Z,11.56
2019-05-06T13:27:12.617Z,11.36
2019-05-06T13:28:12.909Z,11.32
2019-05-06T13:29:13.016Z,11.44
2019-05-06T13:30:12.895Z,11.35
2019-05-06T13:31:20.482Z,11.29
2019-05-06T13:32:12.817Z,11.41
2019-05-06T13:33:13.626Z,11.44
2019-05-06T13:34:11.676Z,11.41
2019-05-06T13:35:12.262Z,11.43
2019-05-06T13:36:13.196Z,11.39
2019-05-06T13:37:12.842Z,11.35
2019-05-06T13:38:11.534Z,11.52
2019-05-06T13:39:14.909Z,11.52
2019-05-06T13:40:11.657Z,11.36
2019-05-06T13:41:12.691Z,11.44
2019-05-06T13:42:13.220Z,11.59
2019-05-06T13:43:13.077Z,11.56
2019-05-06T13:44:13.136Z,11.71
2019-05-06T13:45:12.139Z,11.71
2019-05-06T13:46:12.373Z,11.82
2019-05-06T13:47:12.142Z,11.93
2019-05-06T13:48:13.253Z,12.01
2019-05-06T13:49:13.359Z,12.01
2019-05-06T13:50:12.183Z,12.08
2019-05-06T13:51:12.428Z,12.16
2019-05-06T13:52:12.700Z,12.09
2019-05-06T13:53:14.422Z,12.19
2019-05-06T13:54:15.470Z,12.31
2019-05-06T13:55:12.942Z,12.31
2019-05-06T13:56:12.085Z,12.37
2019-05-06T13:57:12.463Z,12.44
2019-05-06T13:58:12.489Z,12.45
2019-05-06T13:59:12.892Z,12.45
2019-05-06T14:00:13.379Z,12.51
2019-05-06T14:01:11.280Z,12.64
2019-05-06T14:02:11.283Z,12.62
2019-05-06T14:03:11.257Z,12.64
2019-05-06T14:04:12.932Z,12.69
2019-05-06T14:05:12.103Z,12.79
2019-05-06T14:06:12.298Z,12.70
2019-05-06T14:07:13.072Z,12.82
2019-05-06T14:08:13.031Z,12.88
2019-05-06T14:09:27.983Z,13.07
2019-05-06T14:10:13.166Z,13.00
2019-05-06T14:11:13.122Z,12.99
2019-05-06T14:12:11.155Z,12.99
2019-05-06T14:13:12.854Z,12.92
2019-05-06T14:14:12.536Z,12.85
2019-05-06T14:15:12.480Z,12.82
2019-05-06T14:16:13.108Z,12.81
2019-05-06T14:17:12.737Z,12.82
2019-05-06T14:18:13.486Z,12.66
2019-05-06T14:19:13.201Z,12.74
2019-05-06T14:20:12.523Z,12.93
2019-05-06T14:21:12.398Z,12.95
2019-05-06T14:22:12.503Z,12.96
2019-05-06T14:23:12.614Z,13.21
2019-05-06T14:24:13.282Z,13.30
2019-05-06T14:25:12.680Z,13.87
2019-05-06T14:26:12.603Z,13.99
2019-05-06T14:27:10.988Z,14.24
2019-05-06T14:28:12.430Z,14.12
2019-05-06T14:29:12.782Z,14.17
2019-05-06T14:30:11.046Z,14.25
2019-05-06T14:31:10.968Z,14.28
2019-05-06T14:32:12.298Z,14.35
2019-05-06T14:33:12.714Z,14.24
2019-05-06T14:34:11.934Z,14.19
2019-05-06T14:35:12.166Z,14.02
2019-05-06T14:36:12.774Z,13.81
2019-05-06T14:37:10.897Z,13.91
2019-05-06T14:38:13.513Z,13.91
2019-05-06T14:39:12.795Z,13.87
2019-05-06T14:40:11.865Z,13.89
2019-05-06T14:41:13.112Z,13.98
2019-05-06T14:42:12.646Z,14.44
2019-05-06T14:43:13.343Z,14.37
2019-05-06T14:44:12.205Z,14.32
2019-05-06T14:45:12.542Z,14.29
2019-05-06T14:46:10.925Z,14.20
2019-05-06T14:47:12.664Z,14.01
2019-05-06T14:48:10.759Z,13.84
2019-05-06T14:49:10.762Z,13.88
2019-05-06T14:50:14.506Z,13.89
2019-05-06T14:51:12.897Z,13.83
2019-05-06T14:52:12.905Z,13.69
2019-05-06T14:53:13.034Z,13.52
2019-05-06T14:54:14.517Z,13.49
2019-05-06T14:55:12.564Z,13.41
2019-05-06T14:56:12.920Z,13.84
2019-05-06T14:57:12.209Z,14.28
2019-05-06T14:58:12.076Z,14.56
2019-05-06T14:59:12.588Z,15.01
2019-05-06T15:00:12.176Z,15.30
2019-05-06T15:01:13.521Z,15.39
2019-05-06T15:02:10.601Z,15.42
2019-05-06T15:03:12.786Z,15.26
2019-05-06T15:04:12.459Z,14.95
2019-05-06T15:05:13.009Z,14.93
2019-05-06T15:06:12.523Z,14.90
2019-05-06T15:07:12.771Z,14.64
2019-05-06T15:08:12.245Z,14.53
2019-05-06T15:09:13.100Z,14.37
2019-05-06T15:10:20.374Z,14.28
2019-05-06T15:11:12.224Z,14.17
2019-05-06T15:12:12.792Z,14.16
2019-05-06T15:13:12.497Z,14.02
2019-05-06T15:14:12.895Z,14.01
2019-05-06T15:15:12.114Z,13.81
2019-05-06T15:16:10.442Z,13.69
2019-05-06T15:17:10.432Z,13.41
2019-05-06T15:18:12.593Z,13.29
2019-05-06T15:19:12.764Z,13.21
2019-05-06T15:20:12.128Z,13.20
2019-05-06T15:21:31.463Z,13.20
2019-05-06T15:22:12.969Z,13.18
2019-05-06T15:23:10.365Z,13.24
2019-05-06T15:24:10.351Z,13.20
2019-05-06T15:25:12.784Z,13.15
2019-05-06T15:26:12.277Z,13.21
2019-05-06T15:27:11.971Z,13.29
2019-05-06T15:28:10.311Z,13.25
2019-05-06T15:29:12.525Z,13.25
2019-05-06T15:30:12.304Z,13.24
2019-05-06T15:31:12.323Z,13.24
2019-05-06T15:32:12.849Z,13.30
2019-05-06T15:33:10.252Z,13.21
2019-05-06T15:34:10.243Z,13.15
2019-05-06T15:35:10.230Z,13.02
2019-05-06T15:36:12.705Z,12.89
2019-05-06T15:37:12.825Z,12.74
2019-05-06T15:38:10.197Z,12.70
2019-05-06T15:39:10.185Z,12.64
2019-05-06T15:40:12.158Z,12.66
2019-05-06T15:41:10.176Z,12.60
2019-05-06T15:42:10.150Z,12.51
2019-05-06T15:43:10.139Z,12.27
2019-05-06T15:44:12.481Z,12.16
2019-05-06T15:45:12.443Z,12.20
2019-05-06T15:46:12.135Z,12.13
2019-05-06T15:47:10.097Z,12.06
2019-05-06T15:48:10.086Z,11.96
2019-05-06T15:49:10.076Z,11.89
2019-05-06T15:50:12.518Z,11.78
2019-05-06T15:51:12.094Z,11.83
2019-05-06T15:52:12.311Z,11.72
2019-05-06T15:53:10.027Z,11.72
2019-05-06T15:54:10.018Z,11.64
2019-05-06T15:55:10.004Z,11.56
2019-05-06T15:56:12.164Z,11.54
2019-05-06T15:57:09.984Z,11.47
2019-05-06T15:58:12.306Z,11.46
2019-05-06T15:59:11.994Z,11.50
2019-05-06T16:00:09.956Z,11.52
2019-05-06T16:01:09.947Z,11.41
2019-05-06T16:02:09.930Z,11.43
2019-05-06T16:03:09.915Z,11.50
2019-05-06T16:04:12.117Z,11.54
2019-05-06T16:05:13.761Z,11.47
2019-05-06T16:06:12.424Z,11.35
2019-05-06T16:07:12.542Z,11.34
2019-05-06T16:08:09.874Z,11.25
2019-05-06T16:09:09.854Z,11.16
2019-05-06T16:10:09.841Z,11.17
2019-05-06T16:11:09.893Z,11.09
2019-05-06T16:12:09.823Z,11.09
2019-05-06T16:13:09.805Z,11.03
2019-05-06T16:14:12.307Z,10.96
2019-05-06T16:15:09.789Z,10.98
2019-05-06T16:16:09.820Z,10.84
2019-05-06T16:17:09.758Z,10.94
2019-05-06T16:18:09.748Z,10.83
2019-05-06T16:19:09.739Z,10.74
2019-05-06T16:20:09.725Z,10.86
2019-05-06T16:21:09.724Z,10.88
2019-05-06T16:22:09.710Z,10.84
2019-05-06T16:23:09.693Z,10.73
2019-05-06T16:24:09.682Z,10.70
2019-05-06T16:25:09.680Z,10.74
2019-05-06T16:26:09.678Z,10.74
2019-05-06T16:27:09.656Z,10.59
2019-05-06T16:28:09.641Z,10.68
2019-05-06T16:29:09.663Z,10.60
2019-05-06T16:30:09.613Z,10.47
2019-05-06T16:31:09.845Z,10.65
2019-05-06T16:32:09.591Z,10.53
2019-05-06T16:33:09.579Z,10.53
2019-05-06T16:34:09.570Z,10.56
2019-05-06T16:35:09.556Z,10.55
2019-05-06T16:36:09.555Z,10.58
2019-05-06T16:37:09.535Z,10.55
2019-05-06T16:38:09.523Z,10.53
2019-05-06T16:39:09.533Z,10.55
2019-05-06T16:40:09.502Z,10.39
2019-05-06T16:41:13.231Z,10.26
2019-05-06T16:42:12.819Z,10.28
2019-05-06T16:43:09.468Z,10.34
2019-05-06T16:44:09.502Z,10.26
2019-05-06T16:45:09.457Z,10.22
2019-05-06T16:46:09.450Z,10.19
2019-05-06T16:47:09.421Z,10.26
2019-05-06T16:48:09.412Z,10.14
2019-05-06T16:49:09.399Z,10.10
2019-05-06T16:50:09.389Z,10.00
2019-05-06T16:51:09.383Z,10.07
2019-05-06T16:52:09.376Z,10.07
2019-05-06T16:53:09.355Z,10.12
2019-05-06T16:54:09.345Z,9.96
2019-05-06T16:55:09.331Z,9.89
2019-05-06T16:56:09.320Z,9.88
2019-05-06T16:57:09.318Z,9.79
2019-05-06T16:58:09.301Z,9.68
2019-05-06T16:59:09.290Z,9.82
2019-05-06T17:00:09.277Z,9.81
2019-05-06T17:01:09.266Z,9.71
2019-05-06T17:02:09.266Z,9.75
2019-05-06T17:03:09.268Z,9.68
2019-05-06T17:04:09.237Z,9.76
2019-05-06T17:05:09.224Z,9.70
2019-05-06T17:06:09.208Z,9.63
2019-05-06T17:07:09.210Z,9.73
2019-05-06T17:08:09.186Z,9.67
2019-05-06T17:09:19.927Z,9.79
2019-05-06T17:10:11.846Z,9.81
2019-05-06T17:11:09.157Z,9.76
2019-05-06T17:12:09.153Z,9.70
2019-05-06T17:13:09.136Z,9.61
2019-05-06T17:14:09.120Z,9.67
2019-05-06T17:15:09.109Z,9.76
2019-05-06T17:16:09.098Z,9.79
2019-05-06T17:17:09.095Z,9.70
2019-05-06T17:18:09.087Z,9.67
2019-05-06T17:19:09.065Z,9.68
2019-05-06T17:20:09.052Z,9.67
2019-05-06T17:21:09.043Z,9.60
2019-05-06T17:22:09.041Z,9.67
2019-05-06T17:23:09.019Z,9.68
2019-05-06T17:24:09.010Z,9.70
2019-05-06T17:25:09.043Z,9.61
2019-05-06T17:26:08.986Z,9.61
2019-05-06T17:27:08.992Z,9.64
2019-05-06T17:28:08.965Z,9.66
2019-05-06T17:29:08.982Z,9.63
2019-05-06T17:30:08.942Z,9.61
2019-05-06T17:31:08.933Z,9.60
2019-05-06T17:32:08.928Z,9.63
2019-05-06T17:33:08.910Z,9.60
2019-05-06T17:34:08.907Z,9.57
2019-05-06T17:35:08.888Z,9.58
2019-05-06T17:36:08.876Z,9.57
2019-05-06T17:37:08.872Z,9.53
2019-05-06T17:38:08.856Z,9.53
2019-05-06T17:39:08.845Z,9.58
2019-05-06T17:40:11.766Z,9.53
2019-05-06T17:41:12.171Z,9.63
2019-05-06T17:42:08.830Z,9.61
2019-05-06T17:43:08.804Z,9.63
2019-05-06T17:44:08.787Z,9.60
2019-05-06T17:45:08.779Z,9.53
2019-05-06T17:46:08.764Z,9.57
2019-05-06T17:47:08.752Z,9.66
2019-05-06T17:48:08.751Z,9.61
2019-05-06T17:49:08.731Z,9.57
2019-05-06T17:50:08.799Z,9.60
2019-05-06T17:51:08.708Z,9.49
2019-05-06T17:52:08.701Z,9.50
2019-05-06T17:53:08.694Z,9.52
2019-05-06T17:54:08.674Z,9.52
2019-05-06T17:55:08.669Z,9.43
2019-05-06T17:56:08.659Z,9.50
2019-05-06T17:57:08.640Z,9.43
2019-05-06T17:58:08.640Z,9.45
2019-05-06T17:59:08.619Z,9.39
2019-05-06T18:00:08.607Z,9.39
2019-05-06T18:01:08.597Z,9.42
2019-05-06T18:02:08.586Z,9.35
2019-05-06T18:03:08.583Z,9.35
2019-05-06T18:04:08.566Z,9.42
2019-05-06T18:05:08.556Z,9.38
2019-05-06T18:06:13.699Z,9.45
2019-05-06T18:07:09.530Z,9.23
2019-05-06T18:08:08.528Z,9.35
2019-05-06T18:09:08.510Z,9.34
2019-05-06T18:10:08.498Z,9.31
2019-05-06T18:11:08.484Z,9.35
2019-05-06T18:12:08.475Z,9.43
2019-05-06T18:13:08.478Z,9.28
2019-05-06T18:14:08.453Z,9.39
2019-05-06T18:15:08.443Z,9.35
2019-05-06T18:16:08.431Z,9.35
2019-05-06T18:17:08.418Z,9.32
2019-05-06T18:18:08.417Z,9.39
2019-05-06T18:19:08.400Z,9.30
2019-05-06T18:20:08.385Z,9.32
2019-05-06T18:21:08.375Z,9.30
2019-05-06T18:22:08.367Z,9.43
2019-05-06T18:23:08.376Z,9.30
2019-05-06T18:24:09.905Z,9.25
2019-05-06T18:25:08.337Z,9.40
2019-05-06T18:26:08.323Z,9.49
2019-05-06T18:27:08.305Z,9.28
2019-05-06T18:28:08.306Z,9.25
2019-05-06T18:29:08.284Z,9.27
2019-05-06T18:30:16.182Z,9.20
2019-05-06T18:31:09.263Z,9.28
2019-05-06T18:32:08.252Z,9.23
2019-05-06T18:33:08.255Z,9.24
2019-05-06T18:34:08.229Z,9.25
2019-05-06T18:35:08.218Z,9.12
2019-05-06T18:36:08.208Z,9.09
2019-05-06T18:37:08.194Z,9.18
2019-05-06T18:38:08.206Z,9.04
2019-05-06T18:39:08.380Z,9.06
2019-05-06T18:40:08.168Z,8.94
2019-05-06T18:41:08.166Z,8.93
2019-05-06T18:42:17.019Z,8.90
2019-05-06T18:43:09.151Z,8.93
2019-05-06T18:44:08.119Z,8.83
2019-05-06T18:45:08.119Z,8.79
2019-05-06T18:46:08.098Z,8.87
2019-05-06T18:47:08.082Z,8.83
2019-05-06T18:48:08.077Z,8.79
2019-05-06T18:49:08.492Z,8.68
2019-05-06T18:50:08.049Z,8.66
2019-05-06T18:51:08.077Z,8.73
2019-05-06T18:52:08.027Z,8.71
2019-05-06T18:53:08.032Z,8.72
